Time;durP1;ratioP1;P1;durP2;ratioP2;P2;SDS_P1;SDS_P2;PMS_P1;PMS_P2;Temp;Humidity;BMP_temperature;BMP_pressure;BME280_temperature;BME280_humidity;BME280_pressure;Samples;Min_cycle;Max_cycle;Signal;HPM_P1;HPM_P2
2021/03/05 00:01:29;;;;;;;10.10;8.63;;;4.70;96.30;;;;;;4749513;30;20044;-84
2021/03/05 00:03:56;;;;;;;9.40;6.57;;;4.80;96.60;;;;;;4752274;30;20052;-84
2021/03/05 00:06:23;;;;;;;13.63;6.35;;;4.80;95.80;;;;;;4754694;30;20143;-83
2021/03/05 00:08:50;;;;;;;13.40;7.18;;;4.80;96.10;;;;;;4753820;30;20134;-84
2021/03/05 00:11:17;;;;;;;10.40;7.45;;;4.70;96.10;;;;;;4754668;30;20486;-83
2021/03/05 00:13:44;;;;;;;8.15;6.65;;;4.80;96.10;;;;;;4754260;30;20048;-83
2021/03/05 00:16:11;;;;;;;7.32;6.05;;;4.90;95.90;;;;;;4754181;29;20506;-83
2021/03/05 00:18:38;;;;;;;9.10;6.40;;;4.90;96.10;;;;;;4767793;30;20056;-84
2021/03/05 00:21:06;;;;;;;6.50;5.85;;;5.00;95.40;;;;;;4752545;30;20056;-84
2021/03/05 00:23:32;;;;;;;7.53;6.30;;;4.90;95.40;;;;;;4738414;30;20052;-84
2021/03/05 00:25:59;;;;;;;7.10;6.45;;;5.00;95.40;;;;;;4752756;30;20044;-84
2021/03/05 00:28:30;;;;;;;7.25;5.75;;;4.90;96.00;;;;;;4752784;30;20086;-83
2021/03/05 00:30:57;;;;;;;11.27;7.07;;;5.00;95.70;;;;;;4752868;30;20453;-84
2021/03/05 00:33:23;;;;;;;6.50;5.90;;;4.90;95.90;;;;;;4737600;30;20052;-84
2021/03/05 00:35:54;;;;;;;7.60;5.82;;;4.90;96.10;;;;;;4752184;30;20044;-83
2021/03/05 00:38:24;;;;;;;10.88;7.38;;;4.90;96.10;;;;;;4738363;30;20143;-82
2021/03/05 00:40:52;;;;;;;8.93;6.53;;;4.90;95.90;;;;;;4752903;30;20054;-84
2021/03/05 00:43:20;;;;;;;5.93;5.28;;;4.90;96.60;;;;;;4738621;30;20146;-84
2021/03/05 00:45:49;;;;;;;6.68;5.32;;;4.90;96.30;;;;;;4767041;30;20059;-83
2021/03/05 00:48:18;;;;;;;8.02;5.43;;;4.90;96.20;;;;;;4734994;30;20052;-83
2021/03/05 00:50:45;;;;;;;11.57;6.60;;;4.90;96.20;;;;;;4746053;30;20062;-84
2021/03/05 00:53:13;;;;;;;9.18;6.75;;;4.90;96.60;;;;;;4753406;30;20420;-83
2021/03/05 00:55:40;;;;;;;6.70;5.93;;;4.90;96.30;;;;;;4738530;30;20052;-83
2021/03/05 00:58:17;;;;;;;9.43;6.55;;;4.90;96.40;;;;;;4722526;30;20151;-83
2021/03/05 01:00:45;;;;;;;11.35;7.50;;;4.90;96.70;;;;;;4737732;30;20052;-83
2021/03/05 01:03:15;;;;;;;7.88;6.55;;;4.90;96.70;;;;;;4754389;30;20049;-84
2021/03/05 01:05:42;;;;;;;9.73;6.72;;;4.90;96.90;;;;;;4737423;30;20192;-83
2021/03/05 01:08:11;;;;;;;8.05;5.82;;;4.90;96.60;;;;;;4737782;30;20127;-83
2021/03/05 01:10:46;;;;;;;6.95;6.32;;;4.90;96.40;;;;;;4721591;30;20059;-83
2021/03/05 01:13:13;;;;;;;8.10;5.88;;;4.90;96.70;;;;;;4720510;30;20072;-83
2021/03/05 01:15:40;;;;;;;9.98;6.63;;;4.90;96.70;;;;;;4748717;30;20079;-84
2021/03/05 01:18:14;;;;;;;;;;;5.00;96.90;;;;;;4761201;30;20179;-83
2021/03/05 01:20:43;;;;;;;10.35;5.85;;;4.90;96.70;;;;;;4753208;30;19930;-83
2021/03/05 01:23:09;;;;;;;6.55;5.78;;;4.90;96.90;;;;;;4767361;30;20097;-83
2021/03/05 01:25:36;;;;;;;8.68;6.55;;;4.90;96.80;;;;;;4753043;30;20131;-84
2021/03/05 01:28:06;;;;;;;6.05;5.43;;;4.90;96.80;;;;;;4752032;30;20139;-84
2021/03/05 01:30:33;;;;;;;10.45;6.22;;;4.90;96.90;;;;;;4752621;30;20056;-84
2021/03/05 01:33:00;;;;;;;6.43;5.07;;;4.80;97.10;;;;;;4765533;30;20048;-83
2021/03/05 01:35:30;;;;;;;6.75;5.93;;;4.90;97.20;;;;;;4771400;30;20445;-84
2021/03/05 01:37:57;;;;;;;8.85;5.63;;;4.80;97.10;;;;;;4754720;30;20059;-83
2021/03/05 01:40:39;;;;;;;6.90;6.20;;;4.90;97.10;;;;;;4754365;30;20045;-83
2021/03/05 01:43:08;;;;;;;8.60;6.25;;;4.90;97.10;;;;;;4753627;30;20135;-83
2021/03/05 01:45:36;;;;;;;8.07;6.05;;;4.90;97.20;;;;;;4752833;30;20048;-83
2021/03/05 01:48:09;;;;;;;10.43;6.03;;;4.90;97.50;;;;;;4752699;30;20052;-83
2021/03/05 01:50:59;;;;;;;7.60;6.18;;;4.90;97.50;;;;;;4737162;30;20084;-83
2021/03/05 01:53:29;;;;;;;10.13;5.57;;;4.90;97.40;;;;;;4749663;30;20082;-82
2021/03/05 01:55:56;;;;;;;6.20;5.50;;;4.90;96.90;;;;;;4752984;30;20132;-84
2021/03/05 01:59:07;;;;;;;6.15;5.03;;;4.90;96.90;;;;;;4753261;30;20776;-83
2021/03/05 02:01:35;;;;;;;5.05;4.53;;;4.90;97.10;;;;;;4752321;30;20567;-83
2021/03/05 02:04:07;;;;;;;9.65;5.88;;;5.00;96.80;;;;;;4736664;30;20056;-83
2021/03/05 02:06:41;;;;;;;7.88;6.30;;;4.90;97.10;;;;;;4753395;30;20090;-83
2021/03/05 02:09:08;;;;;;;8.10;5.35;;;4.90;97.00;;;;;;4752549;30;20498;-82
2021/03/05 02:11:39;;;;;;;7.68;5.78;;;4.90;97.10;;;;;;4751719;30;20052;-84
2021/03/05 02:14:08;;;;;;;8.65;6.03;;;4.90;97.30;;;;;;4752221;30;20453;-83
2021/03/05 02:16:45;;;;;;;7.25;6.50;;;4.90;97.30;;;;;;4751096;30;20649;-81
2021/03/05 02:19:19;;;;;;;9.82;6.90;;;4.80;97.20;;;;;;4766543;30;20058;-83
2021/03/05 02:22:09;;;;;;;8.23;5.50;;;5.00;97.10;;;;;;4765650;30;20102;-83
2021/03/05 02:25:17;;;;;;;8.05;6.70;;;4.90;97.20;;;;;;4752354;30;20082;-83
2021/03/05 02:28:18;;;;;;;7.93;6.90;;;4.90;96.90;;;;;;4752665;30;20386;-83
2021/03/05 02:31:23;;;;;;;17.85;5.45;;;4.90;96.90;;;;;;4738934;30;21728;-83
2021/03/05 02:33:56;;;;;;;6.93;6.20;;;4.90;96.90;;;;;;4751073;30;20507;-83
2021/03/05 02:36:31;;;;;;;10.07;7.18;;;5.00;96.80;;;;;;4752167;30;20050;-83
2021/03/05 02:39:05;;;;;;;6.90;6.07;;;4.90;96.60;;;;;;4747088;30;20084;-83
2021/03/05 02:41:35;;;;;;;6.93;5.75;;;4.90;96.80;;;;;;4734053;30;20140;-83
2021/03/05 02:44:07;;;;;;;9.73;5.97;;;4.90;96.60;;;;;;4747634;30;20599;-82
2021/03/05 02:46:38;;;;;;;11.18;5.55;;;4.90;96.50;;;;;;4738130;30;20076;-84
2021/03/05 02:49:08;;;;;;;8.68;7.30;;;4.90;96.80;;;;;;4751534;30;20113;-83
2021/03/05 02:51:39;;;;;;;12.20;5.72;;;4.90;97.00;;;;;;4751057;30;20059;-84
2021/03/05 02:54:09;;;;;;;6.35;5.85;;;4.90;96.90;;;;;;4765382;30;20574;-83
2021/03/05 02:56:38;;;;;;;7.15;6.47;;;4.90;96.70;;;;;;4755294;30;20048;-83
2021/03/05 02:59:20;;;;;;;7.63;5.75;;;4.90;96.80;;;;;;4770013;30;20055;-82
2021/03/05 03:01:48;;;;;;;6.68;5.97;;;4.90;96.70;;;;;;4769271;30;20048;-83
2021/03/05 03:04:15;;;;;;;14.40;8.57;;;4.90;96.70;;;;;;4769248;30;20147;-82
2021/03/05 03:06:45;;;;;;;6.30;5.40;;;4.90;96.50;;;;;;4754412;30;20048;-83
2021/03/05 03:09:14;;;;;;;9.20;5.95;;;4.90;96.80;;;;;;4762178;30;20106;-83
2021/03/05 03:11:43;;;;;;;7.78;7.00;;;4.80;96.70;;;;;;4770789;30;20403;-82
2021/03/05 03:14:15;;;;;;;9.05;5.90;;;4.90;96.60;;;;;;4769360;30;20044;-83
2021/03/05 03:16:45;;;;;;;10.70;7.10;;;4.90;96.60;;;;;;4767767;30;20469;-83
2021/03/05 03:19:17;;;;;;;8.45;5.45;;;4.90;96.90;;;;;;4751653;30;20055;-83
2021/03/05 03:21:45;;;;;;;8.13;6.85;;;4.80;97.00;;;;;;4751412;30;20471;-83
2021/03/05 03:24:13;;;;;;;6.28;5.53;;;4.80;97.00;;;;;;4751349;30;20510;-83
2021/03/05 03:26:40;;;;;;;12.73;6.25;;;4.80;96.90;;;;;;4751932;30;20192;-83
2021/03/05 03:29:14;;;;;;;6.43;5.78;;;4.80;97.20;;;;;;4735752;30;20048;-84
2021/03/05 03:31:41;;;;;;;6.70;5.45;;;4.80;97.20;;;;;;4751563;30;20155;-83
2021/03/05 03:34:11;;;;;;;7.00;5.68;;;4.80;97.20;;;;;;4751280;30;20605;-83
2021/03/05 03:36:40;;;;;;;8.30;6.57;;;4.80;97.20;;;;;;4751406;30;20056;-83
2021/03/05 03:39:09;;;;;;;7.18;6.30;;;4.80;97.00;;;;;;4752855;30;20051;-83
2021/03/05 03:41:39;;;;;;;7.20;6.50;;;4.80;97.20;;;;;;4753475;30;20048;-83
2021/03/05 03:44:07;;;;;;;8.18;6.00;;;4.70;97.20;;;;;;4754864;30;20060;-84
2021/03/05 03:46:39;;;;;;;7.78;5.82;;;4.70;97.20;;;;;;4755266;30;20462;-83
2021/03/05 03:49:12;;;;;;;7.95;5.82;;;4.70;97.30;;;;;;4755086;30;20415;-84
2021/03/05 03:51:43;;;;;;;8.13;6.57;;;4.80;97.20;;;;;;4755038;30;20052;-83
2021/03/05 03:54:15;;;;;;;6.57;5.78;;;4.80;97.20;;;;;;4738912;30;20097;-83
2021/03/05 03:56:44;;;;;;;8.55;7.13;;;4.70;97.20;;;;;;4755020;30;20064;-83
2021/03/05 03:59:16;;;;;;;10.05;7.50;;;4.70;97.00;;;;;;4755148;30;20052;-84
2021/03/05 04:01:48;;;;;;;9.82;6.20;;;4.80;96.90;;;;;;4754535;30;20052;-84
2021/03/05 04:04:17;;;;;;;8.57;7.65;;;4.80;97.00;;;;;;4754264;30;20077;-84
2021/03/05 04:06:46;;;;;;;10.85;7.78;;;4.80;97.10;;;;;;4754774;30;20140;-84
2021/03/05 04:09:16;;;;;;;10.13;8.63;;;4.80;97.10;;;;;;4750637;30;20056;-83
2021/03/05 04:11:43;;;;;;;10.10;6.43;;;4.80;96.90;;;;;;4735962;30;20060;-84
2021/03/05 04:14:10;;;;;;;6.63;5.75;;;4.80;97.30;;;;;;4736631;30;20057;-84
2021/03/05 04:16:37;;;;;;;11.70;8.85;;;4.70;97.10;;;;;;4736467;30;20041;-83
2021/03/05 04:19:04;;;;;;;9.73;7.35;;;4.80;97.20;;;;;;4736098;30;20135;-83
2021/03/05 04:21:35;;;;;;;7.38;6.00;;;4.80;97.20;;;;;;4734958;30;20055;-84
2021/03/05 04:24:04;;;;;;;14.25;9.02;;;4.70;97.20;;;;;;4750126;30;20094;-83
2021/03/05 04:26:31;;;;;;;9.95;6.40;;;4.80;97.30;;;;;;4736051;30;20501;-84
2021/03/05 04:29:03;;;;;;;8.52;7.15;;;4.70;97.30;;;;;;4735248;30;20494;-84
2021/03/05 04:31:29;;;;;;;9.73;8.20;;;4.80;97.40;;;;;;4735745;30;20774;-84
2021/03/05 04:33:56;;;;;;;10.60;7.32;;;4.70;97.20;;;;;;4749890;30;20123;-83
2021/03/05 04:36:23;;;;;;;9.45;6.93;;;4.80;97.20;;;;;;4736647;30;20061;-83
2021/03/05 04:39:01;;;;;;;8.75;7.57;;;4.80;97.10;;;;;;4737140;30;20446;-84
2021/03/05 04:41:28;;;;;;;10.18;7.38;;;4.80;97.30;;;;;;4734841;30;20041;-83
2021/03/05 04:43:58;;;;;;;8.68;7.35;;;4.80;97.20;;;;;;4734035;30;20131;-85
2021/03/05 04:46:26;;;;;;;10.48;7.57;;;4.80;97.40;;;;;;4737111;30;20064;-84
2021/03/05 04:48:54;;;;;;;8.88;7.20;;;4.70;97.40;;;;;;4766654;30;20049;-84
2021/03/05 04:51:21;;;;;;;11.57;8.07;;;4.70;97.60;;;;;;4737069;30;20403;-83
2021/03/05 04:53:48;;;;;;;11.02;9.85;;;4.70;97.70;;;;;;4723557;30;20503;-83
2021/03/05 04:56:15;;;;;;;15.63;9.07;;;4.70;97.70;;;;;;4737805;30;20044;-83
2021/03/05 04:58:45;;;;;;;10.00;8.07;;;4.70;97.70;;;;;;4754361;30;20139;-83
2021/03/05 05:01:12;;;;;;;11.35;6.68;;;4.70;98.10;;;;;;4737762;30;20113;-83
2021/03/05 05:03:39;;;;;;;9.98;6.90;;;4.60;98.20;;;;;;4754061;30;20056;-83
2021/03/05 05:06:06;;;;;;;8.90;7.70;;;4.70;98.50;;;;;;4737850;30;20454;-84
2021/03/05 05:08:33;;;;;;;10.15;6.78;;;4.70;98.70;;;;;;4737951;30;20044;-84
2021/03/05 05:11:01;;;;;;;8.57;6.28;;;4.60;98.80;;;;;;4753758;30;20471;-85
2021/03/05 05:13:31;;;;;;;7.82;5.30;;;4.60;97.90;;;;;;4767100;30;20048;-84
2021/03/05 05:15:58;;;;;;;7.55;6.30;;;4.60;96.40;;;;;;4753421;30;20087;-81
2021/03/05 05:18:25;;;;;;;6.88;5.35;;;4.70;96.90;;;;;;4753808;30;20052;-83
2021/03/05 05:20:52;;;;;;;6.82;6.13;;;4.50;97.00;;;;;;4752849;30;20052;-84
2021/03/05 05:23:19;;;;;;;6.32;5.72;;;4.50;97.70;;;;;;4753888;30;20052;-83
2021/03/05 05:25:47;;;;;;;7.50;6.78;;;4.50;97.80;;;;;;4753440;30;20052;-82
2021/03/05 05:28:15;;;;;;;7.55;6.85;;;4.60;97.30;;;;;;4753071;30;20048;-83
2021/03/05 05:30:41;;;;;;;9.98;7.60;;;4.60;97.60;;;;;;4753725;30;20083;-82
2021/03/05 05:33:08;;;;;;;7.72;6.63;;;4.60;97.50;;;;;;4753330;30;20066;-83
2021/03/05 05:35:37;;;;;;;10.02;7.95;;;4.60;97.80;;;;;;4738101;30;20080;-83
2021/03/05 05:38:04;;;;;;;13.00;10.05;;;4.50;98.00;;;;;;4753055;30;20044;-83
2021/03/05 05:40:32;;;;;;;12.85;8.30;;;4.60;98.10;;;;;;4737286;30;20040;-83
2021/03/05 05:42:59;;;;;;;13.63;10.68;;;4.60;98.10;;;;;;4752320;30;20059;-82
2021/03/05 05:45:27;;;;;;;13.30;11.48;;;4.60;98.20;;;;;;4737036;30;20044;-82
2021/03/05 05:47:57;;;;;;;13.65;10.02;;;4.60;98.30;;;;;;4751463;30;20053;-82
2021/03/05 05:50:27;;;;;;;18.00;12.93;;;4.50;98.30;;;;;;4753014;30;20060;-82
2021/03/05 05:52:58;;;;;;;16.00;10.45;;;4.60;98.50;;;;;;4750461;30;20052;-84
2021/03/05 05:55:26;;;;;;;12.13;10.85;;;4.60;98.50;;;;;;4767393;30;20139;-84
2021/03/05 05:57:54;;;;;;;14.90;11.50;;;4.60;98.50;;;;;;4736738;30;20094;-86
2021/03/05 06:00:50;;;;;;;12.93;8.65;;;4.50;98.90;;;;;;4736811;30;20071;-84
2021/03/05 06:03:17;;;;;;;11.93;7.88;;;4.50;98.20;;;;;;4737144;30;20112;-84
2021/03/05 06:05:44;;;;;;;12.02;10.05;;;4.50;98.10;;;;;;4736444;30;20075;-84
2021/03/05 06:08:12;;;;;;;13.30;11.10;;;4.50;97.80;;;;;;4748241;30;20045;-85
2021/03/05 06:10:39;;;;;;;9.82;8.25;;;4.40;98.10;;;;;;4749455;30;20494;-84
2021/03/05 06:13:06;;;;;;;12.40;9.15;;;4.40;97.90;;;;;;4740657;30;20055;-84
2021/03/05 06:15:33;;;;;;;12.85;10.45;;;4.30;98.20;;;;;;4769451;30;20492;-82
2021/03/05 06:18:00;;;;;;;11.70;10.50;;;4.30;97.80;;;;;;4770149;30;20069;-83
2021/03/05 06:20:45;;;;;;;13.15;10.07;;;4.30;98.10;;;;;;4754280;29;20490;-84
2021/03/05 06:23:13;;;;;;;9.98;7.88;;;4.30;98.40;;;;;;4770481;30;20087;-82
2021/03/05 06:25:40;;;;;;;11.18;8.07;;;4.20;98.60;;;;;;4769769;30;20135;-80
2021/03/05 06:28:14;;;;;;;14.13;11.00;;;4.20;98.30;;;;;;4769753;30;20047;-81
2021/03/05 06:30:42;;;;;;;13.40;9.30;;;4.20;98.40;;;;;;4770343;30;21041;-83
2021/03/05 06:33:29;;;;;;;15.40;12.00;;;4.20;98.60;;;;;;4769601;30;20509;-81
2021/03/05 06:36:16;;;;;;;14.77;9.43;;;4.20;98.60;;;;;;4769672;30;20093;-83
2021/03/05 06:38:51;;;;;;;11.23;9.27;;;4.20;98.60;;;;;;4770804;30;20051;-85
2021/03/05 06:41:20;;;;;;;12.60;9.52;;;4.20;98.80;;;;;;4769400;29;20514;-85
2021/03/05 06:43:51;;;;;;;10.65;7.20;;;4.20;98.50;;;;;;4769722;30;20067;-83
2021/03/05 06:46:35;;;;;;;11.35;8.45;;;4.20;97.10;;;;;;4768917;30;20074;-86
2021/03/05 06:49:11;;;;;;;9.55;7.63;;;3.80;97.20;;;;;;4752145;30;20056;-87
2021/03/05 06:51:41;;;;;;;8.30;6.97;;;3.70;97.70;;;;;;4752411;30;20048;-86
2021/03/05 06:54:13;;;;;;;8.25;6.70;;;3.60;98.00;;;;;;4736266;30;20152;-86
2021/03/05 06:56:51;;;;;;;8.98;8.10;;;3.50;98.30;;;;;;4752214;30;20061;-85
2021/03/05 06:59:25;;;;;;;12.48;8.38;;;3.50;98.10;;;;;;4752401;30;20667;-87
2021/03/05 07:01:54;;;;;;;14.90;9.32;;;3.50;98.20;;;;;;4751899;30;20419;-88
2021/03/05 07:04:34;;;;;;;14.93;9.68;;;3.50;98.50;;;;;;4736204;30;20060;-88
2021/03/05 07:07:03;;;;;;;10.82;8.75;;;3.50;98.00;;;;;;4765871;30;20056;-85
2021/03/05 07:09:35;;;;;;;11.85;9.27;;;3.40;97.40;;;;;;4754974;30;20530;-85
2021/03/05 07:12:11;;;;;;;13.23;9.32;;;3.40;97.90;;;;;;4768185;30;20060;-87
2021/03/05 07:14:40;;;;;;;9.90;8.98;;;3.40;98.20;;;;;;4750548;30;20060;-86
2021/03/05 07:17:07;;;;;;;10.18;7.75;;;3.40;98.30;;;;;;4748562;30;20048;-87
2021/03/05 07:19:36;;;;;;;10.52;8.05;;;3.30;98.10;;;;;;4752784;30;20088;-85
2021/03/05 07:22:06;;;;;;;9.13;8.13;;;3.30;97.90;;;;;;4749469;30;20195;-86
2021/03/05 07:24:38;;;;;;;9.00;7.45;;;3.30;98.00;;;;;;4750654;30;20050;-86
2021/03/05 07:27:09;;;;;;;7.50;6.72;;;3.20;98.00;;;;;;4740860;30;20054;-87
2021/03/05 07:29:44;;;;;;;;;;;3.20;98.20;;;;;;4769566;29;20129;-88
2021/03/05 07:32:21;;;;;;;7.50;5.97;;;3.20;97.60;;;;;;4769433;30;19949;-88
2021/03/05 07:35:05;;;;;;;6.97;6.15;;;3.20;98.20;;;;;;4769731;30;20063;-87
2021/03/05 07:37:41;;;;;;;6.38;5.63;;;3.20;98.60;;;;;;4769474;29;20086;-89
2021/03/05 07:40:11;;;;;;;5.30;4.75;;;3.00;97.00;;;;;;4759038;30;20051;-91
2021/03/05 07:42:39;;;;;;;6.68;6.07;;;2.70;96.80;;;;;;4751939;30;20056;-88
2021/03/05 07:45:09;;;;;;;4.72;4.32;;;2.50;97.10;;;;;;4726731;30;20146;-79
2021/03/05 07:47:39;;;;;;;4.43;4.03;;;2.30;97.60;;;;;;4751404;30;20134;-83
2021/03/05 07:50:08;;;;;;;4.20;3.53;;;2.20;97.90;;;;;;4750800;30;20052;-80
2021/03/05 07:52:36;;;;;;;5.43;4.55;;;2.10;98.10;;;;;;4750892;30;20442;-83
2021/03/05 07:55:04;;;;;;;5.20;4.80;;;2.10;97.90;;;;;;4751306;30;20413;-82
2021/03/05 07:57:34;;;;;;;5.65;5.07;;;2.10;97.80;;;;;;4750802;30;20048;-82
2021/03/05 08:00:17;;;;;;;5.68;5.13;;;2.00;97.50;;;;;;4750588;30;20056;-83
2021/03/05 08:02:57;;;;;;;5.75;5.20;;;2.00;97.90;;;;;;4765039;30;20048;-80
2021/03/05 08:05:34;;;;;;;6.20;4.72;;;2.00;98.00;;;;;;4738005;30;20056;-80
2021/03/05 08:08:14;;;;;;;6.60;5.43;;;2.00;98.20;;;;;;4733364;30;20079;-80
2021/03/05 08:10:44;;;;;;;6.20;5.60;;;2.10;98.60;;;;;;4746131;30;20084;-80
2021/03/05 08:13:36;;;;;;;8.93;5.63;;;2.10;98.60;;;;;;4750703;30;20045;-80
2021/03/05 08:16:26;;;;;;;7.18;6.10;;;2.10;98.40;;;;;;4750548;30;20071;-81
2021/03/05 08:19:14;;;;;;;9.00;6.10;;;2.10;97.70;;;;;;4747798;30;20060;-81
2021/03/05 08:21:54;;;;;;;7.47;5.60;;;2.10;97.20;;;;;;4749916;30;20052;-80
2021/03/05 08:24:26;;;;;;;9.52;7.07;;;2.00;97.00;;;;;;4750090;30;20048;-82
2021/03/05 08:27:04;;;;;;;9.55;8.52;;;2.10;98.20;;;;;;4753094;30;20048;-82
2021/03/05 08:29:49;;;;;;;9.85;7.88;;;2.20;97.80;;;;;;4752688;30;20052;-76
2021/03/05 08:32:33;;;;;;;8.75;7.93;;;2.00;97.30;;;;;;4750946;30;20087;-76
2021/03/05 08:35:10;;;;;;;10.35;7.82;;;1.90;97.90;;;;;;4752494;30;20137;-76
2021/03/05 08:37:39;;;;;;;10.32;8.05;;;2.00;98.50;;;;;;4752555;30;20507;-76
2021/03/05 08:40:17;;;;;;;8.13;6.80;;;2.10;98.10;;;;;;4751996;30;20132;-77
2021/03/05 08:42:46;;;;;;;9.25;6.82;;;2.00;97.50;;;;;;4752839;30;20506;-76
2021/03/05 08:45:19;;;;;;;7.05;6.35;;;2.10;98.50;;;;;;4750622;30;20148;-76
2021/03/05 08:47:59;;;;;;;10.30;7.50;;;2.20;96.90;;;;;;4739808;30;20062;-83
2021/03/05 08:50:31;;;;;;;7.15;5.65;;;2.20;96.50;;;;;;4735268;30;20057;-84
2021/03/05 08:53:11;;;;;;;7.57;6.68;;;2.10;95.80;;;;;;4734421;30;20060;-76
2021/03/05 08:55:42;;;;;;;6.43;5.60;;;2.10;97.10;;;;;;4735075;30;20131;-76
2021/03/05 08:58:15;;;;;;;7.05;5.40;;;2.30;96.60;;;;;;4734108;30;20057;-77
2021/03/05 09:00:43;;;;;;;8.40;6.40;;;2.20;96.20;;;;;;4703673;30;20060;-77
2021/03/05 09:03:16;;;;;;;7.88;5.80;;;2.30;96.80;;;;;;4734772;30;20824;-77
2021/03/05 09:05:50;;;;;;;7.32;5.65;;;2.20;96.30;;;;;;4733699;30;20053;-77
2021/03/05 09:08:25;;;;;;;10.15;7.65;;;2.10;96.80;;;;;;4718351;30;20048;-76
2021/03/05 09:11:00;;;;;;;10.15;7.13;;;1.90;96.80;;;;;;4761134;30;20467;-76
2021/03/05 09:13:30;;;;;;;8.60;7.72;;;1.90;98.00;;;;;;4763273;30;20521;-76
2021/03/05 09:15:59;;;;;;;10.18;7.38;;;1.90;97.40;;;;;;4749609;30;20672;-77
2021/03/05 09:18:29;;;;;;;7.38;6.60;;;1.80;97.50;;;;;;4762114;30;20056;-76
2021/03/05 09:21:01;;;;;;;12.15;7.97;;;1.70;97.50;;;;;;4747601;30;20078;-76
2021/03/05 09:23:30;;;;;;;11.20;8.48;;;1.70;97.70;;;;;;4749526;30;20490;-76
2021/03/05 09:26:01;;;;;;;10.00;7.00;;;1.80;96.90;;;;;;4750494;30;20048;-75
2021/03/05 09:28:39;;;;;;;11.45;8.18;;;1.90;97.90;;;;;;4749664;30;20123;-76
2021/03/05 09:31:07;;;;;;;10.93;8.13;;;1.90;98.60;;;;;;4751200;30;20056;-76
2021/03/05 09:33:45;;;;;;;9.32;7.57;;;1.80;97.20;;;;;;4750918;30;20055;-75
2021/03/05 09:36:23;;;;;;;11.35;8.25;;;1.70;97.80;;;;;;4749261;30;20153;-75
2021/03/05 09:39:00;;;;;;;10.90;7.03;;;1.70;98.00;;;;;;4751775;30;20467;-76
2021/03/05 09:41:31;;;;;;;7.70;6.18;;;1.70;98.10;;;;;;4750204;30;20139;-76
2021/03/05 09:44:02;;;;;;;11.35;7.82;;;1.80;98.20;;;;;;4737284;30;20118;-77
2021/03/05 09:46:34;;;;;;;12.03;8.53;;;1.60;97.70;;;;;;4747296;30;20147;-76
2021/03/05 09:49:21;;;;;;;12.98;9.57;;;1.70;97.80;;;;;;4753548;30;20291;-76
2021/03/05 09:51:48;;;;;;;10.38;7.30;;;1.60;97.90;;;;;;4747416;30;20139;-77
2021/03/05 09:54:17;;;;;;;8.10;6.57;;;1.60;98.00;;;;;;4741727;30;20060;-76
2021/03/05 09:56:46;;;;;;;14.30;9.43;;;1.60;97.90;;;;;;4750093;30;20139;-77
2021/03/05 09:59:16;;;;;;;9.82;5.72;;;1.50;97.70;;;;;;4748463;30;20426;-76
2021/03/05 10:01:45;;;;;;;11.98;8.05;;;1.50;98.00;;;;;;4732931;30;20062;-76
2021/03/05 10:04:12;;;;;;;7.90;7.18;;;1.50;98.10;;;;;;4749654;30;20511;-76
2021/03/05 10:06:39;;;;;;;10.18;6.80;;;1.50;98.30;;;;;;4734655;30;20071;-76
2021/03/05 10:09:08;;;;;;;9.48;7.70;;;1.50;98.70;;;;;;4766357;30;20100;-77
2021/03/05 10:11:40;;;;;;;9.98;8.18;;;1.50;97.90;;;;;;4750730;30;20101;-76
2021/03/05 10:14:09;;;;;;;;;;;1.40;98.00;;;;;;4751058;30;20044;-76
2021/03/05 10:16:41;;;;;;;12.57;7.75;;;1.40;98.40;;;;;;4750433;30;19930;-77
2021/03/05 10:19:16;;;;;;;11.30;7.57;;;1.40;98.50;;;;;;4749788;30;20506;-76
2021/03/05 10:21:49;;;;;;;8.35;7.55;;;1.40;98.20;;;;;;4732970;30;20070;-76
2021/03/05 10:24:18;;;;;;;9.07;6.47;;;1.40;98.40;;;;;;4750076;30;20079;-77
2021/03/05 10:27:19;;;;;;;13.02;7.80;;;1.30;98.40;;;;;;4730755;30;20061;-76
2021/03/05 10:29:57;;;;;;;15.00;7.68;;;1.30;98.50;;;;;;4731973;30;20053;-77
2021/03/05 10:32:47;;;;;;;12.52;7.38;;;1.30;98.30;;;;;;4732396;30;20782;-77
2021/03/05 10:35:16;;;;;;;16.08;9.35;;;1.30;98.40;;;;;;4733094;30;20067;-77
2021/03/05 10:37:44;;;;;;;12.00;7.75;;;1.30;98.50;;;;;;4732648;30;20059;-77
2021/03/05 10:40:14;;;;;;;14.90;8.95;;;1.30;98.60;;;;;;4741159;30;20770;-77
2021/03/05 10:42:42;;;;;;;14.57;8.50;;;1.30;98.60;;;;;;4750956;30;20063;-77
2021/03/05 10:45:26;;;;;;;13.05;9.80;;;1.30;98.70;;;;;;4750409;30;20139;-77
2021/03/05 10:47:54;;;;;;;10.27;7.28;;;1.30;98.70;;;;;;4749999;30;20444;-77
2021/03/05 10:50:22;;;;;;;11.07;6.88;;;1.30;98.20;;;;;;4750039;30;20059;-76
2021/03/05 10:52:49;;;;;;;9.15;5.97;;;1.30;98.00;;;;;;4749679;30;20048;-77
2021/03/05 10:55:16;;;;;;;11.05;8.38;;;1.30;97.70;;;;;;4750893;30;20127;-76
2021/03/05 10:57:43;;;;;;;8.73;4.85;;;1.30;97.90;;;;;;4750332;30;20120;-77
2021/03/05 11:00:15;;;;;;;9.15;7.50;;;1.30;97.80;;;;;;4763343;30;20386;-77
2021/03/05 11:02:45;;;;;;;7.85;7.13;;;1.20;97.60;;;;;;4750671;30;20143;-77
2021/03/05 11:05:12;;;;;;;12.80;5.90;;;1.20;97.30;;;;;;4749333;30;20171;-77
2021/03/05 11:07:39;;;;;;;9.48;6.13;;;1.20;97.40;;;;;;4750928;30;20130;-77
2021/03/05 11:10:06;;;;;;;8.80;6.60;;;1.30;97.70;;;;;;4758126;30;20055;-77
2021/03/05 11:12:33;;;;;;;6.55;5.35;;;1.30;97.70;;;;;;4758482;30;20168;-75
2021/03/05 11:15:03;;;;;;;8.38;5.95;;;1.20;97.30;;;;;;4749779;30;20075;-76
2021/03/05 11:17:30;;;;;;;8.65;5.10;;;1.30;97.80;;;;;;4749126;30;20056;-76
2021/03/05 11:19:58;;;;;;;9.13;5.53;;;1.40;97.80;;;;;;4732839;30;20487;-76
2021/03/05 11:22:25;;;;;;;8.80;6.70;;;1.30;98.00;;;;;;4748637;30;20052;-77
2021/03/05 11:24:52;;;;;;;10.35;6.18;;;1.40;98.00;;;;;;4750043;30;20052;-79
2021/03/05 11:27:20;;;;;;;9.15;6.03;;;1.40;97.90;;;;;;4744519;30;20055;-77
2021/03/05 11:29:47;;;;;;;15.13;7.38;;;1.40;97.00;;;;;;4751296;30;20173;-78
2021/03/05 11:32:15;;;;;;;8.75;6.47;;;1.40;97.90;;;;;;4767092;30;20055;-79
2021/03/05 11:34:43;;;;;;;10.75;5.90;;;1.40;97.70;;;;;;4767513;30;20068;-77
2021/03/05 11:37:10;;;;;;;8.93;8.10;;;1.40;98.00;;;;;;4767191;30;20083;-78
2021/03/05 11:39:37;;;;;;;17.08;10.63;;;1.40;98.10;;;;;;4764230;30;20067;-83
2021/03/05 11:42:04;;;;;;;14.95;9.75;;;1.40;97.70;;;;;;4751173;30;20534;-85
2021/03/05 11:44:31;;;;;;;11.35;9.75;;;1.50;98.00;;;;;;4764768;30;20095;-83
2021/03/05 11:46:57;;;;;;;15.15;8.68;;;1.70;98.30;;;;;;4751345;30;20060;-88
2021/03/05 11:49:24;;;;;;;11.57;7.93;;;1.70;97.80;;;;;;4751505;30;20174;-89
2021/03/05 11:51:51;;;;;;;8.07;6.53;;;1.50;97.60;;;;;;4746504;30;20049;-89
2021/03/05 11:54:18;;;;;;;11.77;7.72;;;1.40;97.40;;;;;;4719071;30;20061;-89
2021/03/05 11:56:45;;;;;;;10.82;6.63;;;1.50;97.70;;;;;;4733637;30;20057;-88
2021/03/05 11:59:12;;;;;;;7.72;5.60;;;1.40;97.20;;;;;;4761386;30;20131;-89
2021/03/05 12:01:39;;;;;;;8.70;5.35;;;1.60;95.60;;;;;;4758427;30;20063;-89
2021/03/05 12:04:06;;;;;;;6.88;5.13;;;1.40;95.60;;;;;;4754190;30;20056;-89
2021/03/05 12:06:32;;;;;;;6.68;5.10;;;1.40;96.60;;;;;;4755356;30;20518;-88
2021/03/05 12:08:59;;;;;;;7.07;5.75;;;1.40;97.00;;;;;;4766621;30;20048;-78
2021/03/05 12:11:26;;;;;;;6.68;5.82;;;1.70;97.20;;;;;;4754157;30;20056;-79
2021/03/05 12:13:54;;;;;;;8.80;5.80;;;1.80;97.00;;;;;;4754129;30;20490;-80
2021/03/05 12:16:21;;;;;;;5.40;3.70;;;1.80;95.90;;;;;;4738437;30;20040;-78
2021/03/05 12:18:48;;;;;;;5.20;4.75;;;2.00;96.00;;;;;;4753189;30;20458;-79
2021/03/05 12:21:15;;;;;;;8.32;5.45;;;1.90;95.30;;;;;;4747176;30;20052;-77
2021/03/05 12:23:42;;;;;;;10.43;4.80;;;2.00;95.10;;;;;;4756152;30;20074;-79
2021/03/05 12:26:09;;;;;;;7.18;5.40;;;2.00;95.40;;;;;;4756918;30;20109;-81
2021/03/05 12:28:40;;;;;;;5.10;3.80;;;2.20;95.10;;;;;;4746281;30;20491;-79
2021/03/05 12:31:07;;;;;;;6.32;5.30;;;2.40;96.20;;;;;;4735580;30;20513;-78
2021/03/05 12:33:34;;;;;;;6.68;4.03;;;2.50;95.00;;;;;;4750848;30;20122;-78
2021/03/05 12:36:01;;;;;;;5.40;4.35;;;2.70;93.10;;;;;;4751358;30;20047;-79
2021/03/05 12:38:28;;;;;;;7.43;4.70;;;2.60;93.30;;;;;;4748086;30;20048;-79
2021/03/05 12:40:55;;;;;;;9.68;6.53;;;2.60;94.10;;;;;;4735102;30;20152;-80
2021/03/05 12:43:22;;;;;;;8.40;5.00;;;2.70;94.10;;;;;;4735822;30;20513;-79
2021/03/05 12:45:49;;;;;;;5.10;4.60;;;2.80;95.30;;;;;;4734385;30;20056;-80
2021/03/05 12:48:36;;;;;;;6.45;5.60;;;2.60;93.50;;;;;;4731856;30;20088;-80
2021/03/05 12:51:04;;;;;;;7.70;5.68;;;2.60;93.60;;;;;;4744039;30;20177;-81
2021/03/05 12:53:31;;;;;;;5.32;4.30;;;2.70;94.20;;;;;;4737879;30;20139;-81
2021/03/05 12:55:59;;;;;;;11.13;5.45;;;2.70;92.90;;;;;;4722715;30;20085;-79
2021/03/05 12:58:34;;;;;;;5.65;4.40;;;2.60;94.50;;;;;;4737593;30;20050;-80
2021/03/05 13:01:01;;;;;;;6.07;4.38;;;2.80;94.70;;;;;;4751714;30;20052;-79
2021/03/05 13:03:28;;;;;;;6.70;5.68;;;2.90;93.10;;;;;;4752587;30;20110;-79
2021/03/05 13:05:56;;;;;;;5.70;4.63;;;2.90;92.60;;;;;;4751625;30;20076;-80
2021/03/05 13:08:23;;;;;;;8.35;5.50;;;2.90;93.00;;;;;;4747130;30;20055;-76
2021/03/05 13:10:50;;;;;;;6.70;5.78;;;2.90;92.20;;;;;;4735224;30;20056;-78
2021/03/05 13:13:17;;;;;;;5.45;4.22;;;3.00;92.00;;;;;;4748588;30;20063;-78